createdAt,value
2023-05-24T00:00:47.807Z,101386.19
2023-05-24T00:03:11.514Z,101383.50
2023-05-24T00:05:37.909Z,101379.00
2023-05-24T00:08:01.607Z,101384.41
2023-05-24T00:10:25.245Z,101385.31
2023-05-24T00:12:48.823Z,101390.31
2023-05-24T00:15:12.889Z,101382.88
2023-05-24T00:17:41.197Z,101388.91
2023-05-24T00:20:07.388Z,101389.47
2023-05-24T00:22:32.559Z,101389.03
2023-05-24T00:24:56.177Z,101390.31
2023-05-24T00:27:19.912Z,101396.94
2023-05-24T00:29:43.761Z,101393.91
2023-05-24T00:32:08.034Z,101391.69
2023-05-24T00:34:33.899Z,101387.28
2023-05-24T00:36:57.891Z,101391.91
2023-05-24T00:39:24.611Z,101396.59
2023-05-24T00:41:48.170Z,101381.22
2023-05-24T00:44:12.056Z,101384.59
2023-05-24T00:46:36.476Z,101389.97
2023-05-24T00:49:00.559Z,101381.69
2023-05-24T00:51:26.524Z,101389.63
2023-05-24T00:53:51.374Z,101396.03
2023-05-24T00:56:17.514Z,101390.88
2023-05-24T00:58:41.940Z,101384.47
2023-05-24T01:01:08.323Z,101388.38
2023-05-24T01:03:32.100Z,101384.25
2023-05-24T01:05:57.061Z,101382.66
2023-05-24T01:08:44.659Z,101387.91
2023-05-24T01:11:27.793Z,101389.94
2023-05-24T01:14:00.646Z,101390.47
2023-05-24T01:16:30.173Z,101395.69
2023-05-24T01:18:59.079Z,101387.41
2023-05-24T01:21:48.275Z,101378.34
2023-05-24T01:24:22.727Z,101385.50
2023-05-24T01:27:05.879Z,101379.22
2023-05-24T01:29:32.762Z,101386.06
2023-05-24T01:31:56.455Z,101384.53
2023-05-24T01:34:20.219Z,101389.72
2023-05-24T01:36:44.260Z,101401.06
2023-05-24T01:39:09.965Z,101394.50
2023-05-24T01:41:42.449Z,101392.44
2023-05-24T01:44:20.057Z,101393.06
2023-05-24T01:46:43.793Z,101397.91
2023-05-24T01:49:23.868Z,101401.72
2023-05-24T01:51:52.540Z,101397.84
2023-05-24T01:54:17.421Z,101398.69
2023-05-24T01:56:42.245Z,101392.56
2023-05-24T01:59:07.801Z,101393.28
2023-05-24T02:01:32.878Z,101398.69
2023-05-24T02:03:56.795Z,101388.88
2023-05-24T02:06:20.551Z,101401.88
2023-05-24T02:08:44.183Z,101396.75
2023-05-24T02:11:07.911Z,101399.03
2023-05-24T02:13:31.536Z,101393.28
2023-05-24T02:15:56.535Z,101401.78
2023-05-24T02:18:22.761Z,101397.84
2023-05-24T02:20:47.157Z,101399.00
2023-05-24T02:23:10.806Z,101395.72
2023-05-24T02:25:34.952Z,101397.44
2023-05-24T02:27:58.677Z,101392.34
2023-05-24T02:30:22.576Z,101393.91
2023-05-24T02:32:47.867Z,101397.59
2023-05-24T02:35:11.876Z,101391.81
2023-05-24T02:37:35.489Z,101393.78
2023-05-24T02:39:59.083Z,101399.19
2023-05-24T02:42:22.654Z,101391.56
2023-05-24T02:44:48.034Z,101393.91
2023-05-24T02:47:11.600Z,101394.19
2023-05-24T02:49:36.715Z,101391.00
2023-05-24T02:52:00.591Z,101397.75
2023-05-24T02:54:24.193Z,101391.66
2023-05-24T02:56:47.978Z,101391.66
2023-05-24T02:59:13.790Z,101395.78
2023-05-24T03:01:37.819Z,101387.56
2023-05-24T03:04:01.863Z,101393.84
2023-05-24T03:06:28.527Z,101396.03
2023-05-24T03:08:53.061Z,101401.56
2023-05-24T03:11:16.819Z,101391.56
2023-05-24T03:13:40.640Z,101389.69
2023-05-24T03:16:04.537Z,101394.84
2023-05-24T03:18:28.232Z,101394.19
2023-05-24T03:20:51.908Z,101385.06
2023-05-24T03:23:17.012Z,101391.09
2023-05-24T03:25:41.029Z,101386.78
2023-05-24T03:28:05.031Z,101385.97
2023-05-24T03:30:29.468Z,101389.13
2023-05-24T03:32:56.715Z,101392.91
2023-05-24T03:35:21.133Z,101397.53
2023-05-24T03:37:45.786Z,101406.88
2023-05-24T03:40:11.962Z,101403.41
2023-05-24T03:42:58.496Z,101408.81
2023-05-24T03:45:54.398Z,101412.09
2023-05-24T03:48:20.760Z,101419.91
2023-05-24T03:50:44.723Z,101412.34
2023-05-24T03:53:08.645Z,101418.91
2023-05-24T03:55:33.767Z,101423.94
2023-05-24T03:57:57.385Z,101420.28
2023-05-24T04:00:21.464Z,101421.16
2023-05-24T04:02:45.995Z,101422.13
2023-05-24T04:05:10.896Z,101424.56
2023-05-24T04:07:37.042Z,101426.91
2023-05-24T04:10:00.705Z,101423.53
2023-05-24T04:12:25.697Z,101429.03
2023-05-24T04:14:49.332Z,101424.75
2023-05-24T04:17:13.136Z,101433.41
2023-05-24T04:19:37.469Z,101421.00
2023-05-24T04:22:01.876Z,101430.28
2023-05-24T04:24:25.867Z,101425.88
2023-05-24T04:26:49.558Z,101431.25
2023-05-24T04:29:14.602Z,101430.50
2023-05-24T04:31:38.380Z,101437.34
2023-05-24T04:34:02.177Z,101436.31
2023-05-24T04:36:27.074Z,101440.22
2023-05-24T04:38:53.660Z,101443.47
2023-05-24T04:41:17.269Z,101441.28
2023-05-24T04:43:40.924Z,101439.63
2023-05-24T04:46:07.567Z,101441.56
2023-05-24T04:48:32.665Z,101445.63
2023-05-24T04:50:58.155Z,101449.34
2023-05-24T04:53:21.970Z,101458.03
2023-05-24T04:55:45.612Z,101457.72
2023-05-24T04:58:10.700Z,101468.25
2023-05-24T05:00:34.513Z,101465.56
2023-05-24T05:02:59.584Z,101468.53
2023-05-24T05:05:23.393Z,101470.22
2023-05-24T05:07:47.183Z,101477.41
2023-05-24T05:10:11.367Z,101475.19
2023-05-24T05:12:34.947Z,101476.84
2023-05-24T05:14:58.548Z,101478.09
2023-05-24T05:17:22.108Z,101477.59
2023-05-24T05:19:47.138Z,101485.88
2023-05-24T05:22:11.036Z,101480.00
2023-05-24T05:24:34.797Z,101482.72
2023-05-24T05:26:58.465Z,101483.28
2023-05-24T05:29:24.256Z,101491.34
2023-05-24T05:31:48.888Z,101483.50
2023-05-24T05:34:12.530Z,101486.44
2023-05-24T05:36:40.715Z,101488.69
2023-05-24T05:39:04.673Z,101487.19
2023-05-24T05:41:28.374Z,101489.41
2023-05-24T05:43:52.040Z,101497.28
2023-05-24T05:46:16.257Z,101493.69
2023-05-24T05:48:40.077Z,101505.59
2023-05-24T05:51:03.687Z,101502.06
2023-05-24T05:53:28.710Z,101499.63
2023-05-24T05:55:52.441Z,101508.44
2023-05-24T05:58:16.307Z,101512.75
2023-05-24T06:00:39.979Z,101516.13
2023-05-24T06:03:03.795Z,101512.75
2023-05-24T06:05:27.438Z,101520.81
2023-05-24T06:07:51.126Z,101519.63
2023-05-24T06:10:16.134Z,101525.75
2023-05-24T06:12:40.665Z,101528.09
2023-05-24T06:15:06.513Z,101529.47
2023-05-24T06:17:30.226Z,101531.69
2023-05-24T06:19:53.983Z,101527.00
2023-05-24T06:22:17.632Z,101538.25
2023-05-24T06:24:41.342Z,101529.09
2023-05-24T06:27:06.815Z,101534.75
2023-05-24T06:29:30.361Z,101532.16
2023-05-24T06:31:54.076Z,101534.81
2023-05-24T06:34:18.994Z,101540.47
2023-05-24T06:36:43.139Z,101543.31
2023-05-24T06:39:06.862Z,101547.34
2023-05-24T06:41:30.580Z,101546.13
2023-05-24T06:43:55.788Z,101545.88
2023-05-24T06:46:19.529Z,101546.84
2023-05-24T06:48:43.394Z,101549.91
2023-05-24T06:51:07.333Z,101548.22
2023-05-24T06:53:30.957Z,101551.47
2023-05-24T06:55:56.922Z,101550.38
2023-05-24T06:58:21.660Z,101555.19
2023-05-24T07:00:46.954Z,101560.00
2023-05-24T07:03:11.207Z,101563.38
2023-05-24T07:05:36.764Z,101563.69
2023-05-24T07:08:00.375Z,101568.09
2023-05-24T07:10:24.226Z,101568.25
2023-05-24T07:12:47.771Z,101569.16
2023-05-24T07:15:11.913Z,101565.63
2023-05-24T07:17:37.237Z,101569.59
2023-05-24T07:20:02.247Z,101574.72
2023-05-24T07:22:28.697Z,101578.91
2023-05-24T07:24:52.539Z,101583.09
2023-05-24T07:27:16.193Z,101578.53
2023-05-24T07:29:39.825Z,101580.50
2023-05-24T07:32:04.101Z,101581.63
2023-05-24T07:34:30.304Z,101582.94
2023-05-24T07:36:53.919Z,101589.22
2023-05-24T07:39:18.942Z,101584.72
2023-05-24T07:41:42.569Z,101587.50
2023-05-24T07:44:06.433Z,101585.38
2023-05-24T07:46:30.137Z,101598.63
2023-05-24T07:48:53.861Z,101597.66
2023-05-24T07:51:18.955Z,101605.47
2023-05-24T07:53:43.142Z,101605.88
2023-05-24T07:56:08.005Z,101599.22
2023-05-24T07:58:31.860Z,101611.19
2023-05-24T08:00:56.756Z,101605.06
2023-05-24T08:03:20.459Z,101616.53
2023-05-24T08:05:44.223Z,101611.06
2023-05-24T08:08:09.654Z,101612.19
2023-05-24T08:10:33.298Z,101619.78
2023-05-24T08:12:56.912Z,101613.56
2023-05-24T08:15:20.491Z,101615.28
2023-05-24T08:17:44.171Z,101620.47
2023-05-24T08:20:10.166Z,101618.31
2023-05-24T08:22:34.014Z,101624.41
2023-05-24T08:24:59.670Z,101622.56
2023-05-24T08:27:23.726Z,101628.09
2023-05-24T08:29:47.343Z,101621.41
2023-05-24T08:32:11.399Z,101621.47
2023-05-24T08:34:36.466Z,101620.50
2023-05-24T08:37:00.135Z,101626.31
2023-05-24T08:39:23.833Z,101624.34
2023-05-24T08:42:00.936Z,101632.81
2023-05-24T08:44:33.547Z,101643.16
2023-05-24T08:46:59.948Z,101643.84
2023-05-24T08:49:23.991Z,101643.44
2023-05-24T08:51:47.592Z,101644.00
2023-05-24T08:54:13.797Z,101650.09
2023-05-24T08:56:38.133Z,101649.66
2023-05-24T08:59:03.178Z,101647.88
2023-05-24T09:01:30.418Z,101647.81
2023-05-24T09:03:56.287Z,101653.34
2023-05-24T09:06:20.500Z,101656.16
2023-05-24T09:08:45.191Z,101657.34
2023-05-24T09:11:10.446Z,101659.78
2023-05-24T09:13:35.042Z,101653.09
2023-05-24T09:16:01.056Z,101657.25
2023-05-24T09:18:24.848Z,101656.13
2023-05-24T09:20:48.500Z,101652.72
2023-05-24T09:23:14.634Z,101659.31
2023-05-24T09:25:38.608Z,101653.84
2023-05-24T09:28:08.517Z,101657.84
2023-05-24T09:30:32.116Z,101652.63
2023-05-24T09:33:01.965Z,101654.63
2023-05-24T09:35:26.898Z,101647.03
2023-05-24T09:37:50.503Z,101656.56
2023-05-24T09:40:20.726Z,101648.47
2023-05-24T09:42:44.414Z,101654.47
2023-05-24T09:45:10.533Z,101654.22
2023-05-24T09:47:35.531Z,101648.41
2023-05-24T09:50:01.484Z,101647.63
2023-05-24T09:52:25.178Z,101641.38
2023-05-24T09:54:50.041Z,101641.91
2023-05-24T09:57:13.692Z,101637.16
2023-05-24T09:59:41.888Z,101640.94
2023-05-24T10:02:13.841Z,101643.22
2023-05-24T10:04:39.062Z,101646.78
2023-05-24T10:07:07.443Z,101643.94
2023-05-24T10:09:34.504Z,101657.09
2023-05-24T10:11:59.545Z,101654.50
2023-05-24T10:14:25.970Z,101663.34
2023-05-24T10:16:50.864Z,101657.88
2023-05-24T10:19:17.232Z,101662.03
2023-05-24T10:21:44.989Z,101666.78
2023-05-24T10:24:13.667Z,101663.91
2023-05-24T10:26:40.727Z,101658.53
2023-05-24T10:29:11.038Z,101666.78
2023-05-24T10:31:40.609Z,101667.59
2023-05-24T10:34:08.876Z,101669.78
2023-05-24T10:36:35.103Z,101664.94
2023-05-24T10:38:58.850Z,101662.56
2023-05-24T10:41:27.103Z,101673.19
2023-05-24T10:44:08.034Z,101667.03
2023-05-24T10:46:35.003Z,101673.63
2023-05-24T10:49:02.832Z,101677.34
2023-05-24T10:51:38.901Z,101674.66
2023-05-24T10:54:27.239Z,101671.06
2023-05-24T10:56:53.597Z,101668.66
2023-05-24T10:59:37.695Z,101680.13
2023-05-24T11:02:02.107Z,101680.06
2023-05-24T11:04:26.484Z,101673.06
2023-05-24T11:06:55.754Z,101667.81
2023-05-24T11:09:20.283Z,101664.44
2023-05-24T11:11:46.870Z,101662.81
2023-05-24T11:14:11.963Z,101678.06
2023-05-24T11:16:39.579Z,101676.22
2023-05-24T11:19:14.264Z,101673.31
2023-05-24T11:21:38.500Z,101668.03
2023-05-24T11:24:02.881Z,101677.63
2023-05-24T11:26:26.610Z,101678.13
2023-05-24T11:28:50.597Z,101675.88
2023-05-24T11:31:15.988Z,101676.19
2023-05-24T11:33:43.704Z,101680.97
2023-05-24T11:36:09.692Z,101680.13
2023-05-24T11:38:36.738Z,101676.56
2023-05-24T11:41:00.637Z,101674.69
2023-05-24T11:43:24.287Z,101678.16
2023-05-24T11:45:50.883Z,101679.44
2023-05-24T11:48:16.752Z,101675.56
2023-05-24T11:50:49.543Z,101676.19
2023-05-24T11:53:15.565Z,101664.81
2023-05-24T11:55:41.226Z,101673.69
2023-05-24T11:58:11.787Z,101670.03
2023-05-24T12:00:36.474Z,101673.16
2023-05-24T12:03:05.291Z,101674.03
2023-05-24T12:05:32.011Z,101674.81
2023-05-24T12:08:06.014Z,101674.59
2023-05-24T12:10:29.677Z,101680.47
2023-05-24T12:12:53.247Z,101678.41
2023-05-24T12:15:18.577Z,101683.50
2023-05-24T12:17:42.756Z,101676.19
2023-05-24T12:20:09.052Z,101689.47
2023-05-24T12:22:34.052Z,101688.41
2023-05-24T12:24:58.932Z,101689.84
2023-05-24T12:27:27.009Z,101684.03
2023-05-24T12:29:50.757Z,101678.66
2023-05-24T12:32:15.458Z,101685.84
2023-05-24T12:34:42.430Z,101679.81
2023-05-24T12:37:06.184Z,101680.41
2023-05-24T12:39:34.249Z,101674.38
2023-05-24T12:41:58.774Z,101676.41
2023-05-24T12:44:26.652Z,101677.03
2023-05-24T12:46:50.476Z,101681.16
2023-05-24T12:49:14.320Z,101676.50
2023-05-24T12:51:37.865Z,101678.31
2023-05-24T12:54:04.907Z,101680.66
2023-05-24T12:56:30.151Z,101682.38
2023-05-24T12:58:55.859Z,101677.41
2023-05-24T13:01:19.749Z,101673.84
2023-05-24T13:03:43.650Z,101675.09
2023-05-24T13:06:07.725Z,101669.94
2023-05-24T13:08:31.347Z,101678.72
2023-05-24T13:10:54.957Z,101671.47
2023-05-24T13:13:20.051Z,101668.03
2023-05-24T13:15:44.710Z,101670.41
2023-05-24T13:18:09.075Z,101663.25
2023-05-24T13:20:32.824Z,101668.03
2023-05-24T13:22:56.564Z,101665.50
2023-05-24T13:25:22.507Z,101660.31
2023-05-24T13:27:46.143Z,101670.25
2023-05-24T13:30:13.733Z,101664.66
2023-05-24T13:32:39.743Z,101670.19
2023-05-24T13:35:08.137Z,101680.34
2023-05-24T13:37:37.512Z,101681.56
2023-05-24T13:40:01.287Z,101685.97
2023-05-24T13:42:25.275Z,101671.13
2023-05-24T13:44:48.924Z,101678.09
2023-05-24T13:47:23.813Z,101682.03
2023-05-24T13:49:56.471Z,101675.34
2023-05-24T13:52:20.100Z,101685.38
2023-05-24T13:54:43.766Z,101674.84
2023-05-24T13:57:07.492Z,101679.28
2023-05-24T13:59:31.183Z,101674.88
2023-05-24T14:01:54.760Z,101667.34
2023-05-24T14:04:19.933Z,101670.09
2023-05-24T14:06:43.551Z,101663.28
2023-05-24T14:09:08.481Z,101664.94
2023-05-24T14:11:32.563Z,101667.78
2023-05-24T14:14:43.731Z,101663.72
2023-05-24T14:16:40.239Z,101667.28
2023-05-24T14:19:03.897Z,101668.25
2023-05-24T14:21:28.902Z,101667.97
2023-05-24T14:23:52.510Z,101669.25
2023-05-24T14:26:18.670Z,101660.06
2023-05-24T14:28:42.413Z,101661.25
2023-05-24T14:31:06.498Z,101655.50
2023-05-24T14:33:30.147Z,101659.41
2023-05-24T14:35:53.903Z,101661.38
2023-05-24T14:38:19.058Z,101665.47
2023-05-24T14:40:47.154Z,101668.53
2023-05-24T14:43:11.352Z,101660.22
2023-05-24T14:45:35.412Z,101666.41
2023-05-24T14:47:59.260Z,101673.09
2023-05-24T14:50:23.235Z,101663.22
2023-05-24T14:52:46.891Z,101662.75
2023-05-24T14:55:12.256Z,101667.94
2023-05-24T14:57:36.970Z,101670.28
2023-05-24T15:00:00.766Z,101672.00
2023-05-24T15:02:24.430Z,101669.25
2023-05-24T15:04:48.109Z,101665.00
2023-05-24T15:07:11.784Z,101663.03
2023-05-24T15:09:35.454Z,101668.91
2023-05-24T15:12:02.019Z,101671.53
2023-05-24T15:14:25.635Z,101661.50
2023-05-24T15:16:49.702Z,101673.41
2023-05-24T15:19:13.459Z,101675.16
2023-05-24T15:21:38.200Z,101666.19
2023-05-24T15:24:01.848Z,101664.63
2023-05-24T15:26:25.431Z,101666.34
2023-05-24T15:28:50.493Z,101661.19
2023-05-24T15:31:14.229Z,101672.09
2023-05-24T15:33:38.440Z,101665.31
2023-05-24T15:36:01.996Z,101675.03
2023-05-24T15:38:25.689Z,101674.00
2023-05-24T15:40:49.376Z,101667.53
2023-05-24T15:43:13.026Z,101673.19
2023-05-24T15:45:38.081Z,101673.13
2023-05-24T15:48:04.539Z,101669.56
2023-05-24T15:50:45.710Z,101677.25
2023-05-24T15:53:11.802Z,101677.06
2023-05-24T15:55:37.250Z,101677.06
2023-05-24T15:58:01.124Z,101674.06
2023-05-24T16:00:24.853Z,101671.31
2023-05-24T16:02:49.955Z,101678.09
2023-05-24T16:05:13.595Z,101677.84
2023-05-24T16:07:37.264Z,101673.78
2023-05-24T16:10:00.842Z,101677.69
2023-05-24T16:12:26.126Z,101676.97
2023-05-24T16:14:49.899Z,101676.97
2023-05-24T16:17:15.049Z,101678.34
2023-05-24T16:19:40.247Z,101676.34
2023-05-24T16:22:04.548Z,101674.22
2023-05-24T16:24:29.108Z,101673.94
2023-05-24T16:26:52.727Z,101677.88
2023-05-24T16:29:18.033Z,101683.50
2023-05-24T16:31:41.709Z,101674.47
2023-05-24T16:34:05.617Z,101676.03
2023-05-24T16:36:31.280Z,101674.16
2023-05-24T16:38:54.856Z,101672.28
2023-05-24T16:41:18.520Z,101679.59
2023-05-24T16:43:42.087Z,101674.63
2023-05-24T16:46:06.113Z,101678.22
2023-05-24T16:48:31.890Z,101671.44
2023-05-24T16:50:56.843Z,101674.47
2023-05-24T16:53:23.047Z,101674.78
2023-05-24T16:55:46.977Z,101684.31
2023-05-24T16:58:10.600Z,101685.59
2023-05-24T17:00:34.296Z,101679.59
2023-05-24T17:02:59.473Z,101679.97
2023-05-24T17:05:23.271Z,101680.81
2023-05-24T17:07:47.220Z,101682.41
2023-05-24T17:10:12.973Z,101682.38
2023-05-24T17:12:36.810Z,101684.25
2023-05-24T17:15:00.414Z,101685.34
2023-05-24T17:17:24.121Z,101678.13
2023-05-24T17:19:47.771Z,101680.25
2023-05-24T17:22:13.044Z,101687.91
2023-05-24T17:24:36.829Z,101696.13
2023-05-24T17:27:02.815Z,101691.19
2023-05-24T17:29:27.168Z,101689.34
2023-05-24T17:31:51.063Z,101689.38
2023-05-24T17:34:17.147Z,101694.31
2023-05-24T17:36:40.721Z,101695.72
2023-05-24T17:39:04.896Z,101695.59
2023-05-24T17:41:28.417Z,101703.97
2023-05-24T17:43:53.492Z,101702.31
2023-05-24T17:46:17.640Z,101697.31
2023-05-24T17:48:42.814Z,101703.59
2023-05-24T17:51:08.891Z,101710.72
2023-05-24T17:53:34.771Z,101705.56
2023-05-24T17:55:58.409Z,101707.63
2023-05-24T17:58:22.714Z,101712.44
2023-05-24T18:00:47.718Z,101704.41
2023-05-24T18:03:11.361Z,101716.66
2023-05-24T18:05:35.004Z,101720.09
2023-05-24T18:07:58.617Z,101708.00
2023-05-24T18:10:22.457Z,101719.53
2023-05-24T18:12:46.664Z,101721.25
2023-05-24T18:15:11.202Z,101714.34
2023-05-24T18:17:36.677Z,101727.91
2023-05-24T18:20:00.486Z,101723.34
2023-05-24T18:22:24.223Z,101725.97
2023-05-24T18:24:47.817Z,101728.66
2023-05-24T18:27:11.459Z,101732.22
2023-05-24T18:29:36.594Z,101741.66
2023-05-24T18:32:00.327Z,101738.66
2023-05-24T18:34:25.517Z,101739.38
2023-05-24T18:36:49.844Z,101737.06
2023-05-24T18:39:13.458Z,101740.91
2023-05-24T18:41:37.142Z,101744.75
2023-05-24T18:44:00.707Z,101746.31
2023-05-24T18:46:25.981Z,101746.31
2023-05-24T18:48:49.685Z,101739.28
2023-05-24T18:51:15.994Z,101740.41
2023-05-24T18:53:40.168Z,101746.94
2023-05-24T18:56:04.083Z,101745.94
2023-05-24T18:58:27.674Z,101752.91
2023-05-24T19:00:51.593Z,101754.03
2023-05-24T19:03:15.198Z,101758.94
2023-05-24T19:05:42.519Z,101760.34
2023-05-24T19:08:09.049Z,101755.75
2023-05-24T19:10:32.879Z,101755.88
2023-05-24T19:12:56.462Z,101760.81
2023-05-24T19:15:20.112Z,101760.31
2023-05-24T19:17:43.995Z,101757.84
2023-05-24T19:20:09.102Z,101755.88
2023-05-24T19:22:32.750Z,101767.50
2023-05-24T19:24:57.751Z,101770.53
2023-05-24T19:27:21.382Z,101774.88
2023-05-24T19:29:45.083Z,101778.06
2023-05-24T19:32:11.453Z,101783.75
2023-05-24T19:34:37.398Z,101779.72
2023-05-24T19:37:01.048Z,101789.47
2023-05-24T19:39:24.918Z,101792.31
2023-05-24T19:41:49.905Z,101796.28
2023-05-24T19:44:13.567Z,101796.78
2023-05-24T19:46:37.728Z,101790.00
2023-05-24T19:49:01.505Z,101793.56
2023-05-24T19:51:25.760Z,101796.13
2023-05-24T19:53:50.172Z,101793.06
2023-05-24T19:56:14.390Z,101802.41
2023-05-24T19:58:39.777Z,101808.53
2023-05-24T20:01:03.405Z,101801.16
2023-05-24T20:03:27.171Z,101806.91
2023-05-24T20:05:50.981Z,101806.66
2023-05-24T20:08:16.662Z,101816.84
2023-05-24T20:10:42.027Z,101817.22
2023-05-24T20:13:06.090Z,101810.94
2023-05-24T20:15:31.293Z,101812.13
2023-05-24T20:17:55.285Z,101809.16
2023-05-24T20:20:19.005Z,101809.41
2023-05-24T20:22:43.044Z,101808.78
2023-05-24T20:25:08.233Z,101811.09
2023-05-24T20:27:32.658Z,101809.56
2023-05-24T20:29:56.357Z,101818.88
2023-05-24T20:32:21.431Z,101812.63
2023-05-24T20:34:44.994Z,101817.16
2023-05-24T20:37:08.645Z,101820.25
2023-05-24T20:39:33.377Z,101814.00
2023-05-24T20:41:58.457Z,101821.56
2023-05-24T20:44:22.137Z,101823.66
2023-05-24T20:46:45.795Z,101823.66
2023-05-24T20:49:10.806Z,101829.16
2023-05-24T20:51:34.500Z,101828.09
2023-05-24T20:53:58.091Z,101818.28
2023-05-24T20:56:24.062Z,101819.25
2023-05-24T20:58:49.255Z,101824.25
2023-05-24T21:01:12.985Z,101825.75
2023-05-24T21:03:36.814Z,101832.03
2023-05-24T21:06:01.920Z,101830.94
2023-05-24T21:08:25.543Z,101829.47
2023-05-24T21:10:49.235Z,101835.91
2023-05-24T21:13:12.810Z,101833.13
2023-05-24T21:15:36.535Z,101836.22
2023-05-24T21:18:00.338Z,101841.50
2023-05-24T21:20:24.242Z,101844.97
2023-05-24T21:22:49.295Z,101850.34
2023-05-24T21:25:12.911Z,101849.59
2023-05-24T21:27:36.502Z,101849.59
2023-05-24T21:30:03.513Z,101853.25
2023-05-24T21:32:27.100Z,101853.78
2023-05-24T21:34:50.909Z,101848.41
2023-05-24T21:37:14.459Z,101850.53
2023-05-24T21:39:39.471Z,101857.00
2023-05-24T21:42:03.386Z,101859.66
2023-05-24T21:44:27.057Z,101861.97
2023-05-24T21:46:50.724Z,101868.31
2023-05-24T21:49:15.186Z,101872.38
2023-05-24T21:51:38.819Z,101871.31
2023-05-24T21:54:02.523Z,101864.84
2023-05-24T21:56:28.045Z,101876.59
2023-05-24T21:58:51.664Z,101882.84
2023-05-24T22:01:15.445Z,101878.63
2023-05-24T22:03:39.269Z,101881.19
2023-05-24T22:06:02.971Z,101877.41
2023-05-24T22:08:26.655Z,101884.84
2023-05-24T22:10:50.223Z,101879.75
2023-05-24T22:13:15.584Z,101884.28
2023-05-24T22:15:39.157Z,101882.50
2023-05-24T22:18:02.876Z,101889.78
2023-05-24T22:20:27.619Z,101890.25
2023-05-24T22:22:53.490Z,101875.50
2023-05-24T22:25:19.625Z,101897.75
2023-05-24T22:27:43.339Z,101893.84
2023-05-24T22:30:10.093Z,101889.31
2023-05-24T22:32:33.789Z,101885.41
2023-05-24T22:34:57.437Z,101892.41
2023-05-24T22:37:21.076Z,101883.41
2023-05-24T22:39:45.974Z,101895.34
2023-05-24T22:42:09.672Z,101883.91
2023-05-24T22:44:33.268Z,101883.94
2023-05-24T22:46:58.407Z,101878.31
2023-05-24T22:49:22.273Z,101880.03
2023-05-24T22:51:46.870Z,101888.63
2023-05-24T22:54:12.878Z,101886.97
2023-05-24T22:56:36.696Z,101897.06
2023-05-24T22:59:00.242Z,101891.25
2023-05-24T23:01:24.073Z,101892.31
2023-05-24T23:03:49.043Z,101892.28
2023-05-24T23:06:13.286Z,101897.72
2023-05-24T23:08:37.529Z,101893.41
2023-05-24T23:11:01.515Z,101897.72
2023-05-24T23:13:27.942Z,101894.97
2023-05-24T23:15:51.917Z,101893.78
2023-05-24T23:18:16.264Z,101895.63
2023-05-24T23:20:41.424Z,101892.06
2023-05-24T23:23:06.115Z,101888.16
2023-05-24T23:25:29.783Z,101893.56
2023-05-24T23:27:53.348Z,101884.63
2023-05-24T23:30:17.354Z,101880.91
2023-05-24T23:32:40.990Z,101885.31
2023-05-24T23:35:04.795Z,101892.09
2023-05-24T23:37:29.826Z,101890.31
2023-05-24T23:39:53.434Z,101898.84
2023-05-24T23:42:17.056Z,101893.47
2023-05-24T23:44:40.677Z,101895.00
2023-05-24T23:47:04.424Z,101895.97
2023-05-24T23:49:28.199Z,101898.06
2023-05-24T23:51:51.779Z,101900.16
2023-05-24T23:54:16.921Z,101905.75
2023-05-24T23:56:40.656Z,101905.66
2023-05-24T23:59:04.783Z,101898.44
